createdAt,value
2018-09-11T00:01:34.937Z,54.00
2018-09-11T00:04:03.885Z,54.60
2018-09-11T00:06:32.393Z,54.24
2018-09-11T00:09:00.844Z,54.22
2018-09-11T00:11:29.289Z,54.41
2018-09-11T00:13:57.744Z,54.37
2018-09-11T00:16:26.149Z,54.14
2018-09-11T00:18:54.578Z,54.29
2018-09-11T00:21:23.020Z,54.19
2018-09-11T00:23:51.428Z,54.11
2018-09-11T00:26:19.861Z,54.29
2018-09-11T00:28:48.355Z,54.56
2018-09-11T00:31:16.736Z,54.56
2018-09-11T00:33:45.197Z,54.14
2018-09-11T00:36:13.618Z,54.26
2018-09-11T00:38:42.065Z,54.09
2018-09-11T00:41:10.477Z,54.13
2018-09-11T00:43:38.927Z,54.15
2018-09-11T00:46:19.142Z,54.10
2018-09-11T00:48:47.561Z,54.16
2018-09-11T00:51:15.962Z,54.11
2018-09-11T00:53:44.914Z,54.14
2018-09-11T00:56:13.302Z,54.52
2018-09-11T00:58:41.796Z,54.49
2018-09-11T01:01:10.197Z,54.48
2018-09-11T01:03:38.701Z,54.26
2018-09-11T01:06:07.332Z,54.18
2018-09-11T01:08:35.829Z,54.53
2018-09-11T01:11:04.247Z,54.53
2018-09-11T01:13:32.772Z,54.53
2018-09-11T01:16:01.167Z,54.57
2018-09-11T01:18:29.597Z,54.24
2018-09-11T01:20:57.991Z,54.46
2018-09-11T01:23:26.473Z,54.55
2018-09-11T01:25:54.849Z,54.30
2018-09-11T01:28:23.277Z,54.19
2018-09-11T01:30:51.837Z,54.14
2018-09-11T01:33:20.291Z,54.00
2018-09-11T01:35:48.748Z,54.24
2018-09-11T01:38:17.137Z,53.98
2018-09-11T01:40:45.561Z,53.88
2018-09-11T01:43:13.970Z,53.93
2018-09-11T01:45:42.394Z,54.37
2018-09-11T01:48:10.793Z,54.22
2018-09-11T01:50:39.224Z,54.13
2018-09-11T01:53:07.628Z,54.12
2018-09-11T01:55:36.074Z,54.04
2018-09-11T01:58:04.460Z,53.87
2018-09-11T02:00:32.909Z,53.92
2018-09-11T02:03:02.025Z,53.93
2018-09-11T02:05:30.482Z,54.07
2018-09-11T02:07:58.901Z,53.60
2018-09-11T02:10:27.600Z,53.93
2018-09-11T02:12:55.995Z,54.13
2018-09-11T02:15:24.475Z,54.14
2018-09-11T02:17:52.921Z,53.83
2018-09-11T02:20:21.401Z,54.14
2018-09-11T02:22:49.824Z,54.15
2018-09-11T02:25:18.281Z,54.38
2018-09-11T02:27:46.709Z,54.13
2018-09-11T02:30:15.118Z,54.10
2018-09-11T02:32:43.601Z,53.90
2018-09-11T02:35:12.049Z,54.37
2018-09-11T02:37:40.529Z,54.18
2018-09-11T02:40:08.962Z,54.13
2018-09-11T02:42:37.397Z,54.22
2018-09-11T02:45:06.293Z,54.41
2018-09-11T02:47:34.727Z,54.23
2018-09-11T02:50:03.759Z,54.37
2018-09-11T02:52:32.199Z,54.21
2018-09-11T02:55:00.669Z,53.86
2018-09-11T02:57:29.094Z,53.46
2018-09-11T02:59:57.488Z,53.33
2018-09-11T03:02:25.869Z,53.17
2018-09-11T03:04:54.354Z,53.21
2018-09-11T03:07:22.759Z,53.39
2018-09-11T03:09:51.320Z,52.93
2018-09-11T03:12:19.715Z,53.12
2018-09-11T03:14:49.958Z,52.79
2018-09-11T03:17:18.425Z,52.95
2018-09-11T03:19:46.870Z,53.61
2018-09-11T03:22:15.256Z,53.48
2018-09-11T03:24:43.680Z,53.55
2018-09-11T03:27:12.089Z,53.61
2018-09-11T03:29:40.573Z,53.39
2018-09-11T03:32:09.254Z,53.75
2018-09-11T03:34:37.681Z,53.95
2018-09-11T03:37:06.234Z,53.88
2018-09-11T03:39:34.693Z,54.14
2018-09-11T03:42:03.709Z,54.05
2018-09-11T03:44:32.130Z,54.25
2018-09-11T03:47:00.525Z,54.47
2018-09-11T03:49:28.957Z,54.76
2018-09-11T03:51:57.368Z,54.94
2018-09-11T03:54:25.801Z,54.69
2018-09-11T03:56:54.225Z,55.17
2018-09-11T03:59:22.653Z,55.38
2018-09-11T04:01:51.072Z,55.13
2018-09-11T04:04:19.465Z,55.48
2018-09-11T04:06:47.917Z,55.48
2018-09-11T04:09:16.305Z,55.49
2018-09-11T04:11:44.705Z,55.53
2018-09-11T04:14:13.119Z,55.54
2018-09-11T04:16:41.556Z,55.29
2018-09-11T04:19:09.953Z,55.35
2018-09-11T04:21:38.370Z,55.70
2018-09-11T04:24:06.828Z,55.26
2018-09-11T04:26:35.298Z,55.17
2018-09-11T04:29:03.832Z,55.47
2018-09-11T04:31:32.315Z,55.40
2018-09-11T04:34:00.810Z,55.40
2018-09-11T04:36:29.312Z,55.68
2018-09-11T04:38:57.709Z,55.54
2018-09-11T04:41:26.153Z,55.17
2018-09-11T04:43:54.617Z,55.44
2018-09-11T04:46:23.065Z,54.72
2018-09-11T04:48:51.497Z,55.01
2018-09-11T04:51:19.889Z,54.92
2018-09-11T04:53:48.379Z,55.06
2018-09-11T04:56:16.920Z,54.64
2018-09-11T04:58:45.232Z,54.44
2018-09-11T05:01:13.621Z,54.68
2018-09-11T05:03:42.057Z,54.52
2018-09-11T05:06:10.566Z,54.51
2018-09-11T05:08:39.067Z,54.13
2018-09-11T05:11:07.575Z,54.06
2018-09-11T05:13:36.083Z,54.06
2018-09-11T05:16:05.109Z,53.55
2018-09-11T05:18:33.562Z,53.77
2018-09-11T05:21:03.246Z,53.48
2018-09-11T05:23:31.691Z,53.51
2018-09-11T05:26:00.231Z,53.60
2018-09-11T05:28:28.653Z,53.44
2018-09-11T05:30:57.133Z,53.52
2018-09-11T05:33:29.457Z,53.67
2018-09-11T05:35:57.869Z,53.92
2018-09-11T05:38:26.825Z,53.72
2018-09-11T05:40:55.233Z,53.59
2018-09-11T05:43:23.677Z,53.42
2018-09-11T05:45:52.083Z,53.22
2018-09-11T05:48:20.477Z,53.11
2018-09-11T05:50:49.050Z,53.42
2018-09-11T05:53:17.477Z,53.53
2018-09-11T05:55:45.957Z,53.23
2018-09-11T05:58:14.519Z,53.61
2018-09-11T06:00:43.001Z,53.20
2018-09-11T06:03:12.262Z,52.52
2018-09-11T06:05:40.945Z,52.90
2018-09-11T06:08:09.230Z,52.99
2018-09-11T06:10:37.670Z,52.80
2018-09-11T06:13:06.327Z,52.68
2018-09-11T06:15:34.756Z,52.69
2018-09-11T06:18:03.476Z,52.50
2018-09-11T06:20:31.897Z,52.07
2018-09-11T06:23:00.306Z,51.98
2018-09-11T06:25:28.721Z,51.21
2018-09-11T06:27:57.142Z,50.88
2018-09-11T06:30:25.557Z,50.70
2018-09-11T06:32:53.969Z,50.13
2018-09-11T06:35:22.504Z,49.84
2018-09-11T06:37:50.903Z,49.72
2018-09-11T06:40:19.328Z,49.50
2018-09-11T06:42:47.761Z,49.25
2018-09-11T06:45:16.178Z,49.25
2018-09-11T06:47:44.617Z,49.40
2018-09-11T06:50:13.014Z,48.41
2018-09-11T06:52:41.433Z,49.23
2018-09-11T06:55:09.854Z,47.84
2018-09-11T06:57:38.308Z,47.78
2018-09-11T07:00:06.773Z,47.82
2018-09-11T07:02:35.209Z,48.30
2018-09-11T07:05:03.692Z,47.66
2018-09-11T07:07:32.341Z,47.93
2018-09-11T07:10:00.805Z,47.68
2018-09-11T07:12:29.221Z,47.13
2018-09-11T07:14:57.617Z,46.80
2018-09-11T07:17:26.033Z,47.50
2018-09-11T07:19:54.596Z,46.74
2018-09-11T07:22:22.960Z,45.90
2018-09-11T07:24:51.443Z,46.42
2018-09-11T07:27:20.077Z,45.63
2018-09-11T07:29:48.890Z,45.56
2018-09-11T07:32:17.412Z,46.33
2018-09-11T07:34:45.792Z,46.08
2018-09-11T07:37:14.185Z,46.29
2018-09-11T07:39:42.615Z,45.42
2018-09-11T07:42:11.013Z,44.96
2018-09-11T07:44:39.430Z,45.59
2018-09-11T07:47:07.846Z,45.54
2018-09-11T07:49:36.296Z,45.77
2018-09-11T07:52:04.697Z,46.02
2018-09-11T07:54:33.135Z,45.68
2018-09-11T07:57:01.917Z,45.69
2018-09-11T07:59:30.350Z,45.08
2018-09-11T08:01:58.741Z,45.74
2018-09-11T08:04:27.222Z,45.01
2018-09-11T08:06:55.638Z,44.96
2018-09-11T08:09:24.088Z,45.13
2018-09-11T08:11:52.471Z,44.85
2018-09-11T08:14:20.929Z,43.64
2018-09-11T08:16:49.318Z,43.78
2018-09-11T08:19:17.729Z,43.66
2018-09-11T08:21:46.114Z,42.85
2018-09-11T08:24:14.571Z,42.77
2018-09-11T08:26:43.018Z,43.23
2018-09-11T08:29:11.459Z,43.33
2018-09-11T08:31:39.853Z,43.00
2018-09-11T08:34:08.234Z,43.91
2018-09-11T08:36:36.645Z,42.96
2018-09-11T08:39:07.734Z,43.14
2018-09-11T08:41:36.362Z,43.38
2018-09-11T08:44:04.794Z,43.04
2018-09-11T08:46:33.267Z,42.92
2018-09-11T08:49:02.048Z,42.81
2018-09-11T08:51:30.489Z,44.02
2018-09-11T08:53:58.881Z,43.96
2018-09-11T08:56:27.325Z,43.76
2018-09-11T08:58:55.708Z,42.65
2018-09-11T09:01:24.132Z,42.85
2018-09-11T09:03:52.560Z,43.18
2018-09-11T09:06:21.006Z,43.13
2018-09-11T09:08:49.421Z,43.55
2018-09-11T09:11:17.849Z,43.63
2018-09-11T09:13:46.238Z,42.77
2018-09-11T09:16:14.670Z,43.31
2018-09-11T09:18:43.066Z,43.04
2018-09-11T09:21:11.462Z,43.02
2018-09-11T09:23:39.900Z,42.85
2018-09-11T09:26:08.317Z,43.10
2018-09-11T09:28:36.753Z,43.35
2018-09-11T09:31:05.177Z,43.74
2018-09-11T09:33:33.583Z,42.96
2018-09-11T09:36:01.968Z,43.18
2018-09-11T09:38:30.392Z,43.16
2018-09-11T09:40:58.787Z,43.06
2018-09-11T09:43:30.102Z,42.35
2018-09-11T09:45:58.521Z,42.49
2018-09-11T09:48:26.983Z,42.84
2018-09-11T09:50:55.475Z,42.40
2018-09-11T09:53:23.877Z,42.53
2018-09-11T09:55:52.306Z,41.87
2018-09-11T09:58:20.726Z,41.63
2018-09-11T10:00:54.357Z,41.40
2018-09-11T10:03:22.777Z,41.26
2018-09-11T10:05:51.216Z,40.72
2018-09-11T10:08:19.692Z,41.12
2018-09-11T10:10:48.085Z,40.81
2018-09-11T10:13:16.541Z,40.71
2018-09-11T10:15:44.928Z,41.37
2018-09-11T10:18:13.322Z,40.84
2018-09-11T10:20:42.357Z,40.78
2018-09-11T10:23:10.745Z,39.84
2018-09-11T10:25:39.157Z,40.32
2018-09-11T10:28:07.565Z,40.04
2018-09-11T10:30:36.013Z,39.80
2018-09-11T10:33:04.428Z,40.42
2018-09-11T10:35:33.432Z,39.89
2018-09-11T10:38:01.979Z,38.93
2018-09-11T10:40:30.423Z,39.75
2018-09-11T10:42:58.805Z,40.04
2018-09-11T10:45:27.237Z,40.17
2018-09-11T10:47:55.628Z,39.69
2018-09-11T10:50:24.072Z,39.88
2018-09-11T10:52:52.445Z,40.10
2018-09-11T10:55:20.882Z,39.60
2018-09-11T10:57:49.343Z,37.37
2018-09-11T11:00:17.865Z,38.58
2018-09-11T11:02:46.264Z,38.18
2018-09-11T11:05:14.763Z,37.63
2018-09-11T11:07:43.177Z,38.42
2018-09-11T11:10:11.724Z,37.59
2018-09-11T11:12:40.158Z,38.27
2018-09-11T11:15:08.630Z,37.20
2018-09-11T11:17:37.116Z,38.04
2018-09-11T11:20:05.561Z,37.73
2018-09-11T11:22:34.010Z,38.10
2018-09-11T11:25:03.012Z,37.97
2018-09-11T11:27:31.461Z,36.89
2018-09-11T11:29:59.865Z,37.48
2018-09-11T11:32:28.281Z,37.50
2018-09-11T11:34:56.685Z,38.75
2018-09-11T11:37:25.261Z,38.31
2018-09-11T11:39:53.553Z,37.51
2018-09-11T11:42:22.016Z,37.46
2018-09-11T11:44:50.420Z,37.04
2018-09-11T11:47:20.316Z,37.78
2018-09-11T11:49:49.420Z,36.74
2018-09-11T11:52:17.978Z,37.34
2018-09-11T11:54:46.468Z,36.53
2018-09-11T11:57:14.942Z,36.31
2018-09-11T11:59:43.442Z,37.47
2018-09-11T12:02:11.888Z,37.72
2018-09-11T12:04:40.352Z,37.61
2018-09-11T12:07:08.823Z,37.72
2018-09-11T12:09:37.260Z,37.45
2018-09-11T12:12:06.731Z,37.51
2018-09-11T12:14:35.159Z,38.03
2018-09-11T12:17:03.655Z,37.64
2018-09-11T12:19:32.122Z,37.56
2018-09-11T12:22:00.598Z,37.78
2018-09-11T12:24:29.005Z,36.95
2018-09-11T12:26:57.877Z,36.52
2018-09-11T12:29:26.417Z,36.65
2018-09-11T12:31:54.817Z,37.19
2018-09-11T12:34:23.308Z,36.70
2018-09-11T12:36:51.733Z,37.07
2018-09-11T12:39:20.137Z,37.14
2018-09-11T12:41:48.646Z,37.35
2018-09-11T12:44:17.097Z,37.22
2018-09-11T12:46:45.642Z,37.31
2018-09-11T12:49:13.998Z,37.42
2018-09-11T12:51:45.358Z,37.81
2018-09-11T12:54:14.049Z,37.22
2018-09-11T12:56:42.862Z,37.41
2018-09-11T12:59:15.961Z,37.75
2018-09-11T13:01:45.457Z,37.67
2018-09-11T13:04:13.843Z,37.33
2018-09-11T13:06:42.496Z,37.62
2018-09-11T13:09:10.952Z,37.02
2018-09-11T13:11:42.094Z,37.40
2018-09-11T13:14:10.542Z,37.22
2018-09-11T13:16:39.049Z,36.81
2018-09-11T13:19:07.460Z,35.80
2018-09-11T13:21:35.917Z,35.65
2018-09-11T13:24:04.337Z,33.98
2018-09-11T13:26:32.780Z,34.58
2018-09-11T13:29:01.943Z,34.22
2018-09-11T13:31:30.370Z,34.12
2018-09-11T13:33:58.985Z,34.50
2018-09-11T13:36:27.342Z,34.58
2018-09-11T13:38:55.793Z,34.71
2018-09-11T13:41:24.225Z,32.84
2018-09-11T13:43:52.617Z,33.00
2018-09-11T13:46:21.201Z,33.75
2018-09-11T13:48:49.605Z,33.08
2018-09-11T13:51:18.038Z,33.42
2018-09-11T13:53:46.440Z,32.95
2018-09-11T13:56:14.926Z,32.94
2018-09-11T13:58:43.329Z,33.32
2018-09-11T14:01:11.790Z,32.42
2018-09-11T14:03:40.254Z,32.05
2018-09-11T14:06:08.682Z,31.31
2018-09-11T14:08:37.163Z,31.88
2018-09-11T14:11:05.596Z,30.79
2018-09-11T14:13:34.128Z,31.91
2018-09-11T14:16:02.965Z,31.38
2018-09-11T14:18:31.409Z,30.29
2018-09-11T14:20:59.835Z,29.98
2018-09-11T14:23:28.272Z,30.92
2018-09-11T14:25:56.653Z,30.07
2018-09-11T14:28:25.106Z,30.37
2018-09-11T14:30:53.511Z,30.43
2018-09-11T14:33:21.953Z,30.62
2018-09-11T14:35:50.333Z,31.04
2018-09-11T14:38:18.853Z,29.74
2018-09-11T14:40:47.245Z,29.62
2018-09-11T14:43:15.652Z,29.00
2018-09-11T14:45:44.104Z,29.61
2018-09-11T14:48:12.577Z,28.46
2018-09-11T14:50:41.006Z,28.79
2018-09-11T14:53:09.448Z,28.63
2018-09-11T14:55:37.894Z,27.51
2018-09-11T14:58:06.697Z,26.31
2018-09-11T15:00:35.124Z,26.08
2018-09-11T15:03:03.505Z,26.49
2018-09-11T15:05:31.986Z,26.39
2018-09-11T15:08:00.411Z,26.22
2018-09-11T15:10:28.825Z,26.59
2018-09-11T15:12:57.218Z,24.70
2018-09-11T15:15:25.634Z,25.92
2018-09-11T15:17:54.092Z,24.70
2018-09-11T15:20:22.510Z,24.01
2018-09-11T15:22:50.897Z,22.47
2018-09-11T15:25:19.309Z,20.76
2018-09-11T15:27:47.702Z,19.16
2018-09-11T15:30:16.113Z,18.07
2018-09-11T15:32:44.505Z,18.11
2018-09-11T15:35:12.958Z,16.65
2018-09-11T15:37:41.342Z,16.23
2018-09-11T15:40:09.825Z,14.74
2018-09-11T15:42:38.233Z,14.41
2018-09-11T15:45:06.758Z,14.93
2018-09-11T15:47:35.154Z,14.44
2018-09-11T15:50:03.557Z,14.36
2018-09-11T15:52:32.003Z,14.22
2018-09-11T15:55:00.409Z,14.43
2018-09-11T15:57:28.861Z,14.32
2018-09-11T15:59:57.336Z,15.46
2018-09-11T16:02:25.740Z,14.40
2018-09-11T16:04:54.138Z,14.24
2018-09-11T16:07:22.649Z,14.40
2018-09-11T16:09:51.054Z,15.37
2018-09-11T16:12:19.493Z,16.03
2018-09-11T16:14:47.940Z,14.81
2018-09-11T16:17:16.399Z,14.50
2018-09-11T16:19:44.800Z,15.52
2018-09-11T16:22:13.331Z,15.18
2018-09-11T16:24:41.708Z,15.06
2018-09-11T16:27:10.159Z,15.66
2018-09-11T16:29:38.651Z,15.97
2018-09-11T16:32:06.865Z,17.09
2018-09-11T16:34:35.259Z,19.09
2018-09-11T16:37:03.658Z,20.69
2018-09-11T16:39:32.102Z,22.77
2018-09-11T16:42:00.480Z,23.09
2018-09-11T16:44:28.929Z,25.05
2018-09-11T16:46:57.324Z,25.77
2018-09-11T16:49:25.753Z,27.09
2018-09-11T16:51:54.160Z,29.11
2018-09-11T16:54:22.566Z,28.87
2018-09-11T16:56:51.854Z,29.04
2018-09-11T16:59:20.261Z,30.07
2018-09-11T17:01:48.719Z,30.51
2018-09-11T17:04:17.162Z,30.23
2018-09-11T17:06:45.577Z,30.78
2018-09-11T17:09:13.997Z,31.58
2018-09-11T17:11:42.402Z,30.83
2018-09-11T17:14:10.879Z,31.38
2018-09-11T17:16:39.260Z,31.12
2018-09-11T17:19:08.017Z,31.38
2018-09-11T17:21:36.478Z,32.40
2018-09-11T17:24:04.984Z,32.58
2018-09-11T17:26:33.457Z,32.85
2018-09-11T17:29:02.264Z,32.46
2018-09-11T17:31:30.679Z,32.84
2018-09-11T17:33:59.082Z,32.96
2018-09-11T17:36:27.492Z,33.93
2018-09-11T17:38:55.874Z,34.79
2018-09-11T17:41:24.293Z,34.60
2018-09-11T17:43:52.692Z,34.04
2018-09-11T17:46:21.125Z,34.97
2018-09-11T17:48:49.525Z,34.73
2018-09-11T17:51:17.925Z,34.89
2018-09-11T17:53:46.310Z,35.19
2018-09-11T17:56:14.721Z,35.84
2018-09-11T17:58:43.178Z,34.27
2018-09-11T18:01:11.602Z,34.84
2018-09-11T18:03:39.986Z,35.87
2018-09-11T18:06:08.638Z,36.30
2018-09-11T18:08:37.087Z,36.64
2018-09-11T18:11:05.533Z,37.25
2018-09-11T18:13:33.921Z,36.35
2018-09-11T18:16:03.045Z,37.41
2018-09-11T18:18:31.442Z,36.25
2018-09-11T18:20:59.853Z,37.71
2018-09-11T18:23:28.264Z,37.80
2018-09-11T18:25:56.746Z,38.88
2018-09-11T18:28:25.241Z,38.52
2018-09-11T18:30:53.629Z,39.51
2018-09-11T18:33:22.051Z,39.33
2018-09-11T18:35:50.412Z,40.03
2018-09-11T18:38:25.426Z,39.52
2018-09-11T18:40:53.820Z,40.14
2018-09-11T18:43:22.233Z,39.95
2018-09-11T18:45:50.696Z,40.78
2018-09-11T18:48:19.106Z,41.07
2018-09-11T18:50:47.553Z,40.89
2018-09-11T18:53:16.013Z,40.88
2018-09-11T18:55:44.476Z,41.20
2018-09-11T18:58:12.894Z,41.07
2018-09-11T19:00:42.389Z,41.46
2018-09-11T19:03:10.793Z,42.37
2018-09-11T19:05:39.193Z,42.21
2018-09-11T19:08:08.871Z,42.05
2018-09-11T19:10:37.765Z,42.36
2018-09-11T19:13:06.241Z,43.11
2018-09-11T19:15:34.753Z,43.05
2018-09-11T19:18:03.232Z,43.50
2018-09-11T19:20:31.650Z,43.72
2018-09-11T19:23:00.352Z,43.93
2018-09-11T19:25:28.730Z,43.30
2018-09-11T19:27:57.190Z,43.52
2018-09-11T19:30:25.570Z,44.25
2018-09-11T19:32:54.261Z,44.17
2018-09-11T19:35:23.312Z,44.69
2018-09-11T19:37:51.730Z,44.67
2018-09-11T19:40:20.501Z,44.44
2018-09-11T19:42:48.873Z,44.39
2018-09-11T19:45:17.498Z,45.13
2018-09-11T19:47:45.878Z,45.32
2018-09-11T19:50:14.366Z,45.27
2018-09-11T19:52:42.704Z,44.64
2018-09-11T19:55:11.113Z,44.67
2018-09-11T19:57:39.525Z,45.78
2018-09-11T20:00:08.058Z,44.93
2018-09-11T20:05:04.333Z,45.37
2018-09-11T20:07:32.709Z,45.87
2018-09-11T20:10:01.132Z,45.53
2018-09-11T20:12:29.508Z,44.94
2018-09-11T20:14:57.890Z,45.91
2018-09-11T20:17:26.318Z,45.05
2018-09-11T20:19:54.737Z,44.78
2018-09-11T20:22:23.206Z,45.24
2018-09-11T20:24:51.601Z,45.01
2018-09-11T20:27:20.018Z,45.39
2018-09-11T20:29:48.394Z,45.98
2018-09-11T20:32:16.797Z,45.17
2018-09-11T20:34:45.208Z,45.64
2018-09-11T20:37:13.642Z,45.83
2018-09-11T20:39:42.022Z,46.34
2018-09-11T20:42:10.421Z,45.52
2018-09-11T20:44:38.842Z,46.97
2018-09-11T20:47:07.273Z,46.60
2018-09-11T20:49:35.649Z,46.80
2018-09-11T20:52:04.229Z,46.61
2018-09-11T20:54:32.641Z,47.02
2018-09-11T20:57:01.094Z,47.84
2018-09-11T20:59:29.469Z,48.20
2018-09-11T21:01:57.913Z,47.31
2018-09-11T21:04:26.330Z,48.40
2018-09-11T21:06:55.326Z,48.56
2018-09-11T21:09:23.757Z,48.02
2018-09-11T21:11:52.142Z,48.66
2018-09-11T21:14:20.547Z,48.38
2018-09-11T21:16:48.924Z,48.60
2018-09-11T21:19:17.421Z,48.67
2018-09-11T21:21:45.881Z,48.56
2018-09-11T21:24:14.301Z,49.17
2018-09-11T21:26:42.690Z,48.83
2018-09-11T21:29:11.124Z,49.35
2018-09-11T21:31:39.491Z,49.20
2018-09-11T21:34:07.970Z,49.90
2018-09-11T21:36:36.345Z,50.22
2018-09-11T21:39:06.735Z,49.99
2018-09-11T21:41:35.143Z,49.88
2018-09-11T21:44:03.634Z,50.14
2018-09-11T21:46:32.029Z,49.85
2018-09-11T21:49:00.467Z,50.23
2018-09-11T21:51:28.869Z,50.85
2018-09-11T21:53:57.321Z,51.05
2018-09-11T21:56:25.721Z,51.34
2018-09-11T21:58:54.179Z,50.69
2018-09-11T22:01:27.957Z,50.48
2018-09-11T22:03:56.397Z,51.02
2018-09-11T22:06:24.822Z,50.67
2018-09-11T22:08:53.185Z,50.95
2018-09-11T22:11:21.586Z,50.95
2018-09-11T22:13:49.977Z,50.27
2018-09-11T22:16:18.393Z,50.36
2018-09-11T22:18:46.800Z,51.00
2018-09-11T22:21:15.221Z,50.92
2018-09-11T22:23:43.597Z,50.42
2018-09-11T22:26:12.026Z,50.91
2018-09-11T22:28:40.404Z,51.27
2018-09-11T22:31:08.859Z,52.38
2018-09-11T22:33:37.261Z,52.12
2018-09-11T22:36:05.761Z,52.97
2018-09-11T22:38:34.218Z,53.10
2018-09-11T22:41:02.741Z,53.41
2018-09-11T22:43:31.127Z,53.23
2018-09-11T22:46:00.081Z,54.23
2018-09-11T22:48:28.873Z,53.77
2018-09-11T22:50:57.376Z,54.79
2018-09-11T22:53:25.889Z,54.71
2018-09-11T22:55:54.293Z,54.58
2018-09-11T22:58:22.704Z,54.65
2018-09-11T23:00:51.165Z,55.37
2018-09-11T23:03:19.604Z,55.27
2018-09-11T23:05:47.989Z,55.18
2018-09-11T23:08:16.428Z,55.52
2018-09-11T23:10:44.845Z,55.91
2018-09-11T23:13:13.281Z,56.45
2018-09-11T23:15:41.653Z,56.38
2018-09-11T23:18:10.094Z,56.60
2018-09-11T23:20:38.549Z,56.98
2018-09-11T23:23:07.079Z,56.77
2018-09-11T23:25:35.459Z,57.59
2018-09-11T23:28:03.897Z,57.89
2018-09-11T23:30:32.320Z,58.05
2018-09-11T23:33:00.759Z,57.43
2018-09-11T23:35:29.146Z,57.26
2018-09-11T23:37:57.578Z,58.19
2018-09-11T23:40:26.025Z,58.11
2018-09-11T23:42:54.817Z,58.46
2018-09-11T23:45:23.215Z,58.08
2018-09-11T23:47:51.593Z,58.35
2018-09-11T23:50:20.051Z,58.43
2018-09-11T23:52:48.453Z,58.21
2018-09-11T23:55:16.897Z,57.98
2018-09-11T23:57:45.301Z,58.68
